AFL1802 UUEE-UKBB
Flight info
| Callsign | AFL1802 |
|---|---|
| Flight time | 1h 23m |
| Altitude | 34000 |
| Route | SOTOG3H SOTOG N181 NEMIP NEMI4U |
| Aircraft | A320/M-SDE3FGHIRWY/LB1 |
Departure
| Time | 2026-05-04 19:51 |
|---|---|
| Airport | Sheremetyevo International Airport (UUEE) |
Arrival
| Time | 2026-05-04 21:15 |
|---|---|
| Airport | Boryspil International Airport (UKBB) |
| Time | Latitude | Longitude | Altitude | Speed | Heading |
|---|---|---|---|---|---|
| 2026-05-04 19:23 | 55.96510 | 37.40641 | 639 ft | 0 kts | 256° |
| 2026-05-04 19:41 | 55.96510 | 37.40644 | 644 ft | 1 kts | 257° |
| 2026-05-04 19:42 | 55.96514 | 37.40674 | 639 ft | 3 kts | 259° |
| 2026-05-04 19:42 | 55.96517 | 37.40709 | 639 ft | 3 kts | 266° |
| 2026-05-04 19:42 | 55.96517 | 37.40744 | 639 ft | 3 kts | 283° |
| 2026-05-04 19:42 | 55.96511 | 37.40774 | 640 ft | 2 kts | 329° |
| 2026-05-04 19:43 | 55.96505 | 37.40780 | 643 ft | 0 kts | 345° |
| 2026-05-04 19:44 | 55.96509 | 37.40778 | 645 ft | 3 kts | 345° |
| 2026-05-04 19:44 | 55.96535 | 37.40765 | 648 ft | 5 kts | 345° |
| 2026-05-04 19:45 | 55.96570 | 37.40748 | 639 ft | 7 kts | 345° |
| 2026-05-04 19:45 | 55.96635 | 37.40717 | 641 ft | 9 kts | 345° |
| 2026-05-04 19:45 | 55.96693 | 37.40690 | 639 ft | 8 kts | 345° |
| 2026-05-04 19:45 | 55.96746 | 37.40665 | 641 ft | 8 kts | 345° |
| 2026-05-04 19:46 | 55.96795 | 37.40669 | 640 ft | 6 kts | 27° |
| 2026-05-04 19:46 | 55.96816 | 37.40734 | 639 ft | 8 kts | 72° |
| 2026-05-04 19:46 | 55.96834 | 37.40851 | 641 ft | 9 kts | 75° |
| 2026-05-04 19:46 | 55.96853 | 37.40979 | 639 ft | 11 kts | 75° |
| 2026-05-04 19:47 | 55.96873 | 37.41116 | 642 ft | 13 kts | 75° |
| 2026-05-04 19:47 | 55.96896 | 37.41271 | 643 ft | 15 kts | 75° |
| 2026-05-04 19:47 | 55.96922 | 37.41445 | 639 ft | 14 kts | 75° |
| 2026-05-04 19:47 | 55.96948 | 37.41619 | 642 ft | 14 kts | 75° |
| 2026-05-04 19:48 | 55.96973 | 37.41786 | 647 ft | 14 kts | 75° |
| 2026-05-04 19:48 | 55.96999 | 37.41956 | 643 ft | 15 kts | 75° |
| 2026-05-04 19:48 | 55.97026 | 37.42136 | 639 ft | 16 kts | 75° |
| 2026-05-04 19:48 | 55.97057 | 37.42344 | 647 ft | 18 kts | 75° |
| 2026-05-04 19:49 | 55.97090 | 37.42570 | 642 ft | 19 kts | 75° |
| 2026-05-04 19:49 | 55.97125 | 37.42797 | 640 ft | 16 kts | 74° |
| 2026-05-04 19:49 | 55.97150 | 37.42962 | 642 ft | 9 kts | 75° |
| 2026-05-04 19:49 | 55.97184 | 37.43039 | 644 ft | 8 kts | 21° |
| 2026-05-04 19:50 | 55.97242 | 37.43028 | 639 ft | 9 kts | 346° |
| 2026-05-04 19:50 | 55.97314 | 37.42995 | 641 ft | 10 kts | 345° |
| 2026-05-04 19:50 | 55.97353 | 37.42921 | 641 ft | 8 kts | 280° |
| 2026-05-04 19:50 | 55.97344 | 37.42837 | 642 ft | 9 kts | 255° |
| 2026-05-04 19:51 | 55.97273 | 37.42365 | 640 ft | 76 kts | 255° |
| 2026-05-04 19:51 | 55.97083 | 37.41092 | 646 ft | 134 kts | 255° |
| 2026-05-04 19:51 | 55.96808 | 37.39264 | 811 ft | 162 kts | 256° |
| 2026-05-04 19:51 | 55.96524 | 37.37344 | 1467 ft | 159 kts | 251° |
| 2026-05-04 19:52 | 55.96239 | 37.35441 | 2133 ft | 158 kts | 251° |
| 2026-05-04 19:52 | 55.95944 | 37.33486 | 2589 ft | 171 kts | 252° |
| 2026-05-04 19:52 | 55.95612 | 37.31303 | 2881 ft | 195 kts | 253° |
| 2026-05-04 19:52 | 55.95236 | 37.28821 | 3244 ft | 219 kts | 253° |
| 2026-05-04 19:53 | 55.94822 | 37.26087 | 3650 ft | 241 kts | 253° |
| 2026-05-04 19:53 | 55.94376 | 37.23126 | 4380 ft | 250 kts | 254° |
| 2026-05-04 19:53 | 55.93928 | 37.20136 | 5240 ft | 254 kts | 255° |
| 2026-05-04 19:53 | 55.93460 | 37.17033 | 6143 ft | 256 kts | 255° |
| 2026-05-04 19:54 | 55.92999 | 37.13979 | 6961 ft | 259 kts | 255° |
| 2026-05-04 19:54 | 55.92523 | 37.10849 | 7793 ft | 263 kts | 255° |
| 2026-05-04 19:54 | 55.92040 | 37.07680 | 8641 ft | 265 kts | 255° |
| 2026-05-04 19:54 | 55.91638 | 37.04437 | 9469 ft | 268 kts | 259° |
| 2026-05-04 19:55 | 55.90938 | 37.01357 | 10210 ft | 274 kts | 232° |
| 2026-05-04 19:55 | 55.89383 | 36.99281 | 10697 ft | 294 kts | 206° |
| 2026-05-04 19:55 | 55.87395 | 36.97877 | 10905 ft | 319 kts | 205° |
| 2026-05-04 19:55 | 55.85303 | 36.96327 | 11070 ft | 341 kts | 205° |
| 2026-05-04 19:56 | 55.83070 | 36.94596 | 11504 ft | 352 kts | 206° |
| 2026-05-04 19:56 | 55.80807 | 36.92799 | 12153 ft | 357 kts | 206° |
| 2026-05-04 19:56 | 55.78560 | 36.90994 | 12823 ft | 361 kts | 206° |
| 2026-05-04 19:56 | 55.76244 | 36.89125 | 13511 ft | 365 kts | 206° |
| 2026-05-04 19:57 | 55.73908 | 36.87247 | 14131 ft | 369 kts | 206° |
| 2026-05-04 19:57 | 55.71562 | 36.85367 | 14725 ft | 372 kts | 206° |
| 2026-05-04 19:57 | 55.69178 | 36.83465 | 15319 ft | 376 kts | 206° |
| 2026-05-04 19:57 | 55.66779 | 36.81562 | 15902 ft | 379 kts | 206° |
| 2026-05-04 19:58 | 55.64361 | 36.79648 | 16469 ft | 382 kts | 206° |
| 2026-05-04 19:58 | 55.61923 | 36.77715 | 17031 ft | 386 kts | 206° |
| 2026-05-04 19:58 | 55.59461 | 36.75760 | 17581 ft | 389 kts | 207° |
| 2026-05-04 19:58 | 55.57008 | 36.73818 | 18119 ft | 393 kts | 206° |
| 2026-05-04 19:59 | 55.54494 | 36.71837 | 18591 ft | 396 kts | 206° |
| 2026-05-04 19:59 | 55.51966 | 36.69851 | 19061 ft | 399 kts | 206° |
| 2026-05-04 19:59 | 55.49410 | 36.67846 | 19536 ft | 402 kts | 206° |
| 2026-05-04 19:59 | 55.46880 | 36.65861 | 20006 ft | 404 kts | 207° |
| 2026-05-04 20:00 | 55.44303 | 36.63839 | 20467 ft | 407 kts | 207° |
| 2026-05-04 20:00 | 55.41707 | 36.61803 | 20927 ft | 409 kts | 207° |
| 2026-05-04 20:00 | 55.39092 | 36.59753 | 21375 ft | 412 kts | 207° |
| 2026-05-04 20:00 | 55.36447 | 36.57686 | 21825 ft | 415 kts | 207° |
| 2026-05-04 20:01 | 55.33832 | 36.55650 | 22264 ft | 417 kts | 207° |
| 2026-05-04 20:01 | 55.31163 | 36.53576 | 22692 ft | 420 kts | 207° |
| 2026-05-04 20:01 | 55.28481 | 36.51496 | 23116 ft | 422 kts | 207° |
| 2026-05-04 20:01 | 55.25780 | 36.49405 | 23513 ft | 425 kts | 207° |
| 2026-05-04 20:02 | 55.23073 | 36.47308 | 23851 ft | 427 kts | 207° |
| 2026-05-04 20:02 | 55.20347 | 36.45199 | 24192 ft | 429 kts | 207° |
| 2026-05-04 20:02 | 55.17611 | 36.43086 | 24532 ft | 431 kts | 207° |
| 2026-05-04 20:02 | 55.14849 | 36.40958 | 24877 ft | 433 kts | 206° |
| 2026-05-04 20:03 | 55.12071 | 36.38821 | 25216 ft | 436 kts | 206° |
| 2026-05-04 20:03 | 55.09288 | 36.36684 | 25547 ft | 438 kts | 206° |
| 2026-05-04 20:03 | 55.06494 | 36.34535 | 25874 ft | 440 kts | 206° |
| 2026-05-04 20:03 | 55.03682 | 36.32376 | 26189 ft | 442 kts | 206° |
| 2026-05-04 20:04 | 55.00895 | 36.30240 | 26491 ft | 444 kts | 206° |
| 2026-05-04 20:04 | 54.98053 | 36.28066 | 26785 ft | 446 kts | 206° |
| 2026-05-04 20:04 | 54.95200 | 36.25881 | 27078 ft | 448 kts | 206° |
| 2026-05-04 20:04 | 54.92335 | 36.23692 | 27370 ft | 450 kts | 206° |
| 2026-05-04 20:05 | 54.89455 | 36.21501 | 27656 ft | 452 kts | 206° |
| 2026-05-04 20:05 | 54.86606 | 36.19336 | 27935 ft | 453 kts | 206° |
| 2026-05-04 20:05 | 54.83706 | 36.17133 | 28260 ft | 454 kts | 206° |
| 2026-05-04 20:05 | 54.80801 | 36.14934 | 28675 ft | 453 kts | 206° |
| 2026-05-04 20:06 | 54.77913 | 36.12753 | 29085 ft | 452 kts | 206° |
| 2026-05-04 20:06 | 54.75014 | 36.10567 | 29495 ft | 451 kts | 205° |
| 2026-05-04 20:06 | 54.72175 | 36.08428 | 29894 ft | 450 kts | 205° |
| 2026-05-04 20:06 | 54.69302 | 36.06261 | 30240 ft | 449 kts | 205° |
| 2026-05-04 20:07 | 54.66432 | 36.04100 | 30570 ft | 449 kts | 205° |
| 2026-05-04 20:07 | 54.63594 | 36.01968 | 30889 ft | 448 kts | 205° |
| 2026-05-04 20:07 | 54.60733 | 35.99830 | 31217 ft | 448 kts | 205° |
| 2026-05-04 20:07 | 54.57867 | 35.97693 | 31537 ft | 447 kts | 205° |
| 2026-05-04 20:08 | 54.55002 | 35.95557 | 31858 ft | 447 kts | 205° |
| 2026-05-04 20:08 | 54.52174 | 35.93451 | 32177 ft | 447 kts | 205° |
| 2026-05-04 20:08 | 54.49317 | 35.91327 | 32496 ft | 446 kts | 205° |
| 2026-05-04 20:08 | 54.46459 | 35.89201 | 32819 ft | 446 kts | 205° |
| 2026-05-04 20:09 | 54.43605 | 35.87079 | 33130 ft | 446 kts | 205° |
| 2026-05-04 20:09 | 54.40750 | 35.84963 | 33447 ft | 445 kts | 205° |
| 2026-05-04 20:09 | 54.37931 | 35.82879 | 33773 ft | 445 kts | 204° |
| 2026-05-04 20:09 | 54.35075 | 35.80774 | 33899 ft | 447 kts | 204° |
| 2026-05-04 20:10 | 54.32202 | 35.78653 | 33913 ft | 448 kts | 204° |
| 2026-05-04 20:10 | 54.26465 | 35.74415 | 33914 ft | 449 kts | 204° |
| 2026-05-04 20:11 | 54.20748 | 35.70211 | 33917 ft | 449 kts | 206° |
| 2026-05-04 20:11 | 54.15536 | 35.64391 | 33919 ft | 446 kts | 223° |
| 2026-05-04 20:12 | 54.10946 | 35.57343 | 33915 ft | 447 kts | 223° |
| 2026-05-04 20:12 | 54.06311 | 35.50250 | 33911 ft | 447 kts | 223° |
| 2026-05-04 20:13 | 54.01673 | 35.43182 | 33915 ft | 447 kts | 223° |
| 2026-05-04 20:13 | 53.97062 | 35.36173 | 33910 ft | 447 kts | 223° |
| 2026-05-04 20:14 | 53.92431 | 35.29103 | 33911 ft | 447 kts | 223° |
| 2026-05-04 20:14 | 53.87847 | 35.21933 | 33909 ft | 447 kts | 223° |
| 2026-05-04 20:15 | 53.83270 | 35.14777 | 33913 ft | 447 kts | 223° |
| 2026-05-04 20:15 | 53.78671 | 35.07654 | 33911 ft | 448 kts | 223° |
| 2026-05-04 20:16 | 53.74092 | 35.00575 | 33913 ft | 448 kts | 223° |
| 2026-05-04 20:16 | 53.69486 | 34.93451 | 33913 ft | 448 kts | 223° |
| 2026-05-04 20:17 | 53.64863 | 34.86375 | 33912 ft | 448 kts | 223° |
| 2026-05-04 20:17 | 53.60259 | 34.79349 | 33918 ft | 448 kts | 223° |
| 2026-05-04 20:18 | 53.55633 | 34.72286 | 33917 ft | 448 kts | 223° |
| 2026-05-04 20:18 | 53.51035 | 34.65279 | 33919 ft | 449 kts | 223° |
| 2026-05-04 20:19 | 53.47159 | 34.59403 | 33918 ft | 449 kts | 222° |
| 2026-05-04 20:19 | 53.41747 | 34.51230 | 33920 ft | 449 kts | 222° |
| 2026-05-04 20:20 | 53.37884 | 34.45397 | 33920 ft | 450 kts | 222° |
| 2026-05-04 20:20 | 53.33205 | 34.38358 | 33923 ft | 450 kts | 222° |
| 2026-05-04 20:21 | 53.28562 | 34.31392 | 33924 ft | 451 kts | 222° |
| 2026-05-04 20:21 | 53.21533 | 34.20908 | 33932 ft | 451 kts | 221° |
| 2026-05-04 20:22 | 53.16830 | 34.13947 | 33934 ft | 452 kts | 222° |
| 2026-05-04 20:22 | 53.12160 | 34.07017 | 33936 ft | 452 kts | 222° |
| 2026-05-04 20:23 | 53.07440 | 34.00023 | 33937 ft | 452 kts | 222° |
| 2026-05-04 20:23 | 53.02750 | 33.93104 | 33951 ft | 453 kts | 221° |
| 2026-05-04 20:24 | 52.98023 | 33.86132 | 33936 ft | 453 kts | 223° |
| 2026-05-04 20:24 | 52.93600 | 33.78789 | 33936 ft | 453 kts | 227° |
| 2026-05-04 20:25 | 52.89302 | 33.71104 | 33944 ft | 453 kts | 227° |
| 2026-05-04 20:25 | 52.84998 | 33.63529 | 33946 ft | 454 kts | 226° |
| 2026-05-04 20:26 | 52.80595 | 33.56025 | 33956 ft | 454 kts | 225° |
| 2026-05-04 20:26 | 52.76164 | 33.48556 | 33936 ft | 454 kts | 225° |
| 2026-05-04 20:27 | 52.71742 | 33.41073 | 33950 ft | 454 kts | 225° |
| 2026-05-04 20:27 | 52.67346 | 33.33651 | 33956 ft | 454 kts | 225° |
| 2026-05-04 20:28 | 52.62923 | 33.26203 | 33948 ft | 455 kts | 225° |
| 2026-05-04 20:28 | 52.58506 | 33.18793 | 33953 ft | 455 kts | 225° |
| 2026-05-04 20:29 | 52.54068 | 33.11355 | 33954 ft | 455 kts | 225° |
| 2026-05-04 20:29 | 52.49627 | 33.03933 | 33953 ft | 455 kts | 225° |
| 2026-05-04 20:30 | 52.45180 | 32.96536 | 33954 ft | 455 kts | 225° |
| 2026-05-04 20:30 | 52.40747 | 32.89181 | 33959 ft | 455 kts | 225° |
| 2026-05-04 20:31 | 52.36292 | 32.81803 | 33953 ft | 455 kts | 225° |
| 2026-05-04 20:31 | 52.31827 | 32.74438 | 33948 ft | 455 kts | 225° |
| 2026-05-04 20:32 | 52.27368 | 32.67127 | 33951 ft | 455 kts | 224° |
| 2026-05-04 20:32 | 52.22680 | 32.60165 | 33949 ft | 455 kts | 220° |
| 2026-05-04 20:33 | 52.17825 | 32.53568 | 33954 ft | 455 kts | 219° |
| 2026-05-04 20:33 | 52.12946 | 32.46936 | 33958 ft | 456 kts | 219° |
| 2026-05-04 20:34 | 52.08132 | 32.40237 | 33963 ft | 456 kts | 220° |
| 2026-05-04 20:34 | 52.03743 | 32.32739 | 33960 ft | 457 kts | 227° |
| 2026-05-04 20:35 | 51.99503 | 32.25115 | 33959 ft | 457 kts | 227° |
| 2026-05-04 20:35 | 51.95201 | 32.17483 | 33964 ft | 458 kts | 226° |
| 2026-05-04 20:36 | 51.90900 | 32.09902 | 33967 ft | 458 kts | 226° |
| 2026-05-04 20:36 | 51.86584 | 32.02277 | 33958 ft | 458 kts | 226° |
| 2026-05-04 20:37 | 51.82276 | 31.94665 | 33974 ft | 458 kts | 226° |
| 2026-05-04 20:37 | 51.79899 | 31.91230 | 33939 ft | 457 kts | 213° |
| 2026-05-04 20:37 | 51.77274 | 31.88428 | 33122 ft | 461 kts | 212° |
| 2026-05-04 20:38 | 51.74541 | 31.85605 | 32075 ft | 467 kts | 211° |
| 2026-05-04 20:38 | 51.71770 | 31.82793 | 31084 ft | 470 kts | 211° |
| 2026-05-04 20:38 | 51.69014 | 31.80021 | 30078 ft | 474 kts | 211° |
| 2026-05-04 20:38 | 51.66196 | 31.77190 | 28870 ft | 478 kts | 211° |
| 2026-05-04 20:39 | 51.63363 | 31.74330 | 27706 ft | 480 kts | 211° |
| 2026-05-04 20:39 | 51.60540 | 31.71469 | 26503 ft | 483 kts | 212° |
| 2026-05-04 20:39 | 51.57669 | 31.68556 | 25483 ft | 484 kts | 212° |
| 2026-05-04 20:39 | 51.54840 | 31.65683 | 24736 ft | 477 kts | 212° |
| 2026-05-04 20:40 | 51.52039 | 31.62841 | 23900 ft | 473 kts | 212° |
| 2026-05-04 20:40 | 51.49290 | 31.60060 | 23036 ft | 470 kts | 212° |
| 2026-05-04 20:40 | 51.46552 | 31.57300 | 22274 ft | 463 kts | 212° |
| 2026-05-04 20:40 | 51.43823 | 31.54551 | 21533 ft | 457 kts | 212° |
| 2026-05-04 20:41 | 51.41134 | 31.51846 | 20811 ft | 453 kts | 212° |
| 2026-05-04 20:41 | 51.38495 | 31.49196 | 20117 ft | 448 kts | 212° |
| 2026-05-04 20:41 | 51.35862 | 31.46561 | 19445 ft | 444 kts | 212° |
| 2026-05-04 20:41 | 51.33243 | 31.43945 | 18787 ft | 440 kts | 212° |
| 2026-05-04 20:42 | 51.30643 | 31.41345 | 18124 ft | 436 kts | 212° |
| 2026-05-04 20:42 | 51.28106 | 31.38806 | 17495 ft | 431 kts | 212° |
| 2026-05-04 20:42 | 51.25572 | 31.36278 | 16913 ft | 425 kts | 212° |
| 2026-05-04 20:42 | 51.23079 | 31.33795 | 16363 ft | 419 kts | 212° |
| 2026-05-04 20:43 | 51.20652 | 31.31378 | 15819 ft | 414 kts | 212° |
| 2026-05-04 20:43 | 51.18224 | 31.28965 | 15286 ft | 409 kts | 212° |
| 2026-05-04 20:43 | 51.15815 | 31.26573 | 14739 ft | 405 kts | 212° |
| 2026-05-04 20:43 | 51.13430 | 31.24205 | 14194 ft | 402 kts | 212° |
| 2026-05-04 20:44 | 51.11049 | 31.21844 | 13596 ft | 401 kts | 212° |
| 2026-05-04 20:44 | 51.08684 | 31.19509 | 12988 ft | 397 kts | 212° |
| 2026-05-04 20:44 | 51.06334 | 31.17197 | 12385 ft | 394 kts | 212° |
| 2026-05-04 20:44 | 51.04032 | 31.14938 | 11765 ft | 392 kts | 212° |
| 2026-05-04 20:45 | 51.01715 | 31.12663 | 11129 ft | 390 kts | 212° |
| 2026-05-04 20:45 | 50.99447 | 31.10433 | 10937 ft | 375 kts | 212° |
| 2026-05-04 20:45 | 50.97264 | 31.08291 | 10811 ft | 359 kts | 212° |
| 2026-05-04 20:45 | 50.95177 | 31.06244 | 10691 ft | 345 kts | 213° |
| 2026-05-04 20:46 | 50.93192 | 31.04299 | 10568 ft | 333 kts | 212° |
| 2026-05-04 20:46 | 50.91254 | 31.02402 | 10446 ft | 321 kts | 213° |
| 2026-05-04 20:46 | 50.89383 | 31.00569 | 10327 ft | 310 kts | 213° |
| 2026-05-04 20:46 | 50.87565 | 30.98794 | 10106 ft | 304 kts | 213° |
| 2026-05-04 20:47 | 50.85797 | 30.97068 | 10040 ft | 301 kts | 213° |
| 2026-05-04 20:47 | 50.84023 | 30.95338 | 9915 ft | 296 kts | 213° |
| 2026-05-04 20:47 | 50.82282 | 30.93709 | 9791 ft | 286 kts | 206° |
| 2026-05-04 20:47 | 50.80414 | 30.92775 | 9658 ft | 277 kts | 188° |
| 2026-05-04 20:48 | 50.78511 | 30.92571 | 9434 ft | 271 kts | 182° |
| 2026-05-04 20:48 | 50.76639 | 30.92437 | 9136 ft | 269 kts | 183° |
| 2026-05-04 20:48 | 50.74772 | 30.92302 | 8820 ft | 267 kts | 183° |
| 2026-05-04 20:48 | 50.72941 | 30.92170 | 8498 ft | 265 kts | 183° |
| 2026-05-04 20:49 | 50.71100 | 30.92034 | 8186 ft | 263 kts | 183° |
| 2026-05-04 20:49 | 50.69276 | 30.91896 | 7856 ft | 261 kts | 183° |
| 2026-05-04 20:49 | 50.67461 | 30.91758 | 7533 ft | 260 kts | 183° |
| 2026-05-04 20:49 | 50.65660 | 30.91621 | 7204 ft | 258 kts | 183° |
| 2026-05-04 20:50 | 50.63868 | 30.91485 | 6875 ft | 257 kts | 184° |
| 2026-05-04 20:50 | 50.62099 | 30.91351 | 6394 ft | 260 kts | 184° |
| 2026-05-04 20:50 | 50.60299 | 30.91445 | 5885 ft | 257 kts | 177° |
| 2026-05-04 20:50 | 50.58521 | 30.91644 | 5385 ft | 254 kts | 177° |
| 2026-05-04 20:51 | 50.56756 | 30.91832 | 5056 ft | 253 kts | 178° |
| 2026-05-04 20:51 | 50.55008 | 30.92016 | 4765 ft | 251 kts | 178° |
| 2026-05-04 20:51 | 50.53266 | 30.92136 | 4457 ft | 247 kts | 185° |
| 2026-05-04 20:51 | 50.51570 | 30.91873 | 4049 ft | 242 kts | 187° |
| 2026-05-04 20:52 | 50.49888 | 30.91671 | 3614 ft | 242 kts | 185° |
| 2026-05-04 20:52 | 50.48231 | 30.91542 | 3354 ft | 239 kts | 184° |
| 2026-05-04 20:52 | 50.46590 | 30.91424 | 3060 ft | 231 kts | 184° |
| 2026-05-04 20:52 | 50.45045 | 30.91312 | 3019 ft | 213 kts | 184° |
| 2026-05-04 20:53 | 50.43604 | 30.91206 | 3019 ft | 201 kts | 185° |
| 2026-05-04 20:53 | 50.42229 | 30.91103 | 2822 ft | 203 kts | 186° |
| 2026-05-04 20:53 | 50.40809 | 30.90992 | 2325 ft | 204 kts | 186° |
| 2026-05-04 20:53 | 50.39394 | 30.90894 | 1673 ft | 200 kts | 186° |
| 2026-05-04 20:54 | 50.38031 | 30.90806 | 1096 ft | 192 kts | 185° |
| 2026-05-04 20:54 | 50.36734 | 30.90678 | 680 ft | 185 kts | 186° |
| 2026-05-04 20:54 | 50.35495 | 30.90577 | 673 ft | 179 kts | 184° |
| 2026-05-04 20:54 | 50.34124 | 30.90489 | 1101 ft | 207 kts | 183° |
| 2026-05-04 20:55 | 50.32661 | 30.90367 | 1788 ft | 213 kts | 185° |
| 2026-05-04 20:55 | 50.31185 | 30.90230 | 2626 ft | 215 kts | 185° |
| 2026-05-04 20:55 | 50.29663 | 30.90085 | 2928 ft | 219 kts | 185° |
| 2026-05-04 20:55 | 50.28146 | 30.89932 | 3051 ft | 218 kts | 185° |
| 2026-05-04 20:56 | 50.26628 | 30.89773 | 3201 ft | 219 kts | 185° |
| 2026-05-04 20:56 | 50.25126 | 30.89611 | 3347 ft | 221 kts | 185° |
| 2026-05-04 20:56 | 50.23584 | 30.89441 | 3495 ft | 221 kts | 185° |
| 2026-05-04 20:56 | 50.22042 | 30.89275 | 3636 ft | 222 kts | 185° |
| 2026-05-04 20:57 | 50.20490 | 30.89105 | 3787 ft | 223 kts | 185° |
| 2026-05-04 20:57 | 50.18934 | 30.88934 | 3954 ft | 225 kts | 185° |
| 2026-05-04 20:57 | 50.17368 | 30.88765 | 4025 ft | 226 kts | 185° |
| 2026-05-04 20:57 | 50.15793 | 30.88607 | 4032 ft | 226 kts | 181° |
| 2026-05-04 20:58 | 50.14262 | 30.89098 | 4033 ft | 227 kts | 154° |
| 2026-05-04 20:58 | 50.13071 | 30.90641 | 4033 ft | 228 kts | 125° |
| 2026-05-04 20:58 | 50.12484 | 30.92936 | 4036 ft | 230 kts | 101° |
| 2026-05-04 20:58 | 50.12192 | 30.95392 | 4039 ft | 231 kts | 101° |
| 2026-05-04 20:59 | 50.11900 | 30.97856 | 4036 ft | 230 kts | 101° |
| 2026-05-04 20:59 | 50.11608 | 31.00315 | 4036 ft | 230 kts | 101° |
| 2026-05-04 20:59 | 50.11318 | 31.02735 | 4035 ft | 230 kts | 102° |
| 2026-05-04 20:59 | 50.11021 | 31.05193 | 4036 ft | 230 kts | 101° |
| 2026-05-04 21:00 | 50.10723 | 31.07640 | 4038 ft | 230 kts | 102° |
| 2026-05-04 21:00 | 50.10546 | 31.10072 | 4036 ft | 230 kts | 85° |
| 2026-05-04 21:00 | 50.10797 | 31.11716 | 4034 ft | 231 kts | 66° |
| 2026-05-04 21:00 | 50.11746 | 31.13682 | 4035 ft | 231 kts | 37° |
| 2026-05-04 21:01 | 50.13196 | 31.14713 | 4036 ft | 231 kts | 8° |
| 2026-05-04 21:01 | 50.14787 | 31.14542 | 4037 ft | 231 kts | 341° |
| 2026-05-04 21:01 | 50.16306 | 31.13698 | 4034 ft | 231 kts | 339° |
| 2026-05-04 21:01 | 50.17826 | 31.12842 | 4044 ft | 232 kts | 339° |
| 2026-05-04 21:02 | 50.19324 | 31.11999 | 4041 ft | 231 kts | 339° |
| 2026-05-04 21:02 | 50.20837 | 31.11149 | 4038 ft | 231 kts | 339° |
| 2026-05-04 21:02 | 50.22352 | 31.10301 | 4038 ft | 231 kts | 339° |
| 2026-05-04 21:02 | 50.23865 | 31.09455 | 4033 ft | 231 kts | 339° |
| 2026-05-04 21:03 | 50.25382 | 31.08608 | 4034 ft | 231 kts | 339° |
| 2026-05-04 21:03 | 50.26900 | 31.07758 | 4034 ft | 231 kts | 339° |
| 2026-05-04 21:03 | 50.28416 | 31.06910 | 4034 ft | 230 kts | 339° |
| 2026-05-04 21:03 | 50.29908 | 31.06076 | 4034 ft | 231 kts | 339° |
| 2026-05-04 21:04 | 50.31421 | 31.05229 | 4029 ft | 230 kts | 339° |
| 2026-05-04 21:04 | 50.32931 | 31.04380 | 4031 ft | 230 kts | 339° |
| 2026-05-04 21:04 | 50.34438 | 31.03527 | 4029 ft | 230 kts | 339° |
| 2026-05-04 21:04 | 50.35940 | 31.02681 | 4028 ft | 230 kts | 339° |
| 2026-05-04 21:05 | 50.37452 | 31.01832 | 4030 ft | 230 kts | 339° |
| 2026-05-04 21:05 | 50.38963 | 31.00986 | 4027 ft | 230 kts | 339° |
| 2026-05-04 21:05 | 50.40469 | 31.00139 | 4025 ft | 229 kts | 339° |
| 2026-05-04 21:05 | 50.41950 | 30.99303 | 4026 ft | 229 kts | 339° |
| 2026-05-04 21:06 | 50.43454 | 30.98455 | 4026 ft | 229 kts | 339° |
| 2026-05-04 21:06 | 50.44955 | 30.97609 | 4024 ft | 229 kts | 338° |
| 2026-05-04 21:06 | 50.46457 | 30.96761 | 4024 ft | 229 kts | 338° |
| 2026-05-04 21:06 | 50.47954 | 30.95915 | 3947 ft | 227 kts | 338° |
| 2026-05-04 21:07 | 50.49458 | 30.95061 | 3628 ft | 229 kts | 338° |
| 2026-05-04 21:07 | 50.50942 | 30.94219 | 3320 ft | 230 kts | 338° |
| 2026-05-04 21:07 | 50.52443 | 30.93368 | 3054 ft | 227 kts | 337° |
| 2026-05-04 21:07 | 50.53898 | 30.92542 | 3009 ft | 215 kts | 336° |
| 2026-05-04 21:08 | 50.55129 | 30.91395 | 3016 ft | 201 kts | 311° |
| 2026-05-04 21:08 | 50.55853 | 30.89679 | 3034 ft | 180 kts | 286° |
| 2026-05-04 21:08 | 50.56036 | 30.87857 | 3012 ft | 160 kts | 264° |
| 2026-05-04 21:08 | 50.55799 | 30.86249 | 3002 ft | 146 kts | 245° |
| 2026-05-04 21:09 | 50.55262 | 30.84953 | 2942 ft | 140 kts | 227° |
| 2026-05-04 21:09 | 50.54501 | 30.84030 | 2936 ft | 137 kts | 210° |
| 2026-05-04 21:09 | 50.53617 | 30.83541 | 2893 ft | 135 kts | 193° |
| 2026-05-04 21:09 | 50.52678 | 30.83518 | 2674 ft | 136 kts | 175° |
| 2026-05-04 21:10 | 50.51762 | 30.83986 | 2627 ft | 140 kts | 157° |
| 2026-05-04 21:10 | 50.50979 | 30.84909 | 2624 ft | 145 kts | 138° |
| 2026-05-04 21:10 | 50.50415 | 30.86249 | 2625 ft | 150 kts | 118° |
| 2026-05-04 21:10 | 50.50040 | 30.87798 | 2623 ft | 151 kts | 115° |
| 2026-05-04 21:11 | 50.49663 | 30.89340 | 2621 ft | 151 kts | 116° |
| 2026-05-04 21:11 | 50.49107 | 30.90662 | 2622 ft | 145 kts | 143° |
| 2026-05-04 21:11 | 50.48249 | 30.91400 | 2620 ft | 139 kts | 169° |
| 2026-05-04 21:11 | 50.47302 | 30.91477 | 2558 ft | 136 kts | 185° |
| 2026-05-04 21:12 | 50.46355 | 30.91407 | 2416 ft | 135 kts | 186° |
| 2026-05-04 21:12 | 50.45428 | 30.91339 | 2252 ft | 134 kts | 186° |
| 2026-05-04 21:12 | 50.44496 | 30.91270 | 2084 ft | 133 kts | 186° |
| 2026-05-04 21:12 | 50.43571 | 30.91202 | 1903 ft | 132 kts | 186° |
| 2026-05-04 21:13 | 50.42653 | 30.91134 | 1733 ft | 131 kts | 186° |
| 2026-05-04 21:13 | 50.41752 | 30.91067 | 1566 ft | 131 kts | 185° |
| 2026-05-04 21:13 | 50.40830 | 30.90999 | 1388 ft | 132 kts | 185° |
| 2026-05-04 21:13 | 50.39908 | 30.90931 | 1210 ft | 133 kts | 184° |
| 2026-05-04 21:14 | 50.38974 | 30.90862 | 1032 ft | 134 kts | 184° |
| 2026-05-04 21:14 | 50.38039 | 30.90794 | 839 ft | 137 kts | 184° |
| 2026-05-04 21:14 | 50.37088 | 30.90734 | 700 ft | 137 kts | 184° |
| 2026-05-04 21:14 | 50.36135 | 30.90651 | 528 ft | 137 kts | 184° |
| 2026-05-04 21:15 | 50.35196 | 30.90583 | 425 ft | 127 kts | 184° |
| 2026-05-04 21:15 | 50.34430 | 30.90527 | 419 ft | 91 kts | 183° |
| 2026-05-04 21:15 | 50.33966 | 30.90492 | 422 ft | 41 kts | 181° |
| 2026-05-04 21:15 | 50.33782 | 30.90479 | 419 ft | 24 kts | 183° |
| 2026-05-04 21:16 | 50.33614 | 30.90467 | 425 ft | 24 kts | 183° |
| 2026-05-04 21:16 | 50.33443 | 30.90453 | 416 ft | 23 kts | 183° |
| 2026-05-04 21:16 | 50.33338 | 30.90387 | 420 ft | 14 kts | 233° |
| 2026-05-04 21:16 | 50.33321 | 30.90237 | 417 ft | 11 kts | 272° |
| 2026-05-04 21:17 | 50.33357 | 30.90136 | 413 ft | 11 kts | 333° |
| 2026-05-04 21:17 | 50.33432 | 30.90130 | 414 ft | 13 kts | 2° |
| 2026-05-04 21:17 | 50.33522 | 30.90138 | 411 ft | 12 kts | 3° |
| 2026-05-04 21:17 | 50.33600 | 30.90145 | 409 ft | 10 kts | 2° |
| 2026-05-04 21:18 | 50.33671 | 30.90149 | 416 ft | 10 kts | 2° |
| 2026-05-04 21:18 | 50.33740 | 30.90153 | 415 ft | 12 kts | 2° |
| 2026-05-04 21:18 | 50.33836 | 30.90160 | 411 ft | 16 kts | 2° |
| 2026-05-04 21:18 | 50.33942 | 30.90168 | 415 ft | 15 kts | 2° |
| 2026-05-04 21:19 | 50.34063 | 30.90178 | 416 ft | 19 kts | 3° |
| 2026-05-04 21:19 | 50.34195 | 30.90187 | 408 ft | 19 kts | 2° |
| 2026-05-04 21:19 | 50.34330 | 30.90198 | 413 ft | 20 kts | 2° |
| 2026-05-04 21:19 | 50.34474 | 30.90208 | 412 ft | 21 kts | 2° |
| 2026-05-04 21:20 | 50.34621 | 30.90218 | 409 ft | 19 kts | 2° |
| 2026-05-04 21:20 | 50.34732 | 30.90226 | 412 ft | 15 kts | 3° |
| 2026-05-04 21:20 | 50.34825 | 30.90233 | 413 ft | 10 kts | 359° |
| 2026-05-04 21:20 | 50.34882 | 30.90186 | 413 ft | 9 kts | 304° |
| 2026-05-04 21:21 | 50.34893 | 30.90096 | 412 ft | 8 kts | 275° |
| 2026-05-04 21:21 | 50.34911 | 30.90024 | 409 ft | 7 kts | 314° |
| 2026-05-04 21:21 | 50.34948 | 30.90000 | 415 ft | 5 kts | 353° |
| 2026-05-04 21:21 | 50.34966 | 30.89962 | 415 ft | 5 kts | 281° |
| 2026-05-04 21:22 | 50.34969 | 30.89916 | 415 ft | 4 kts | 273° |
| 2026-05-04 21:22 | 50.34970 | 30.89880 | 415 ft | 3 kts | 273° |
| 2026-05-04 21:22 | 50.34971 | 30.89854 | 415 ft | 2 kts | 273° |
| 2026-05-04 21:22 | 50.34971 | 30.89853 | 415 ft | 0 kts | 273° |